createdAt,value
2022-08-18T00:00:32.237Z,9.55
2022-08-18T00:03:10.529Z,9.98
2022-08-18T00:05:52.968Z,7.72
2022-08-18T00:08:19.392Z,8.55
2022-08-18T00:10:45.908Z,8.63
2022-08-18T00:13:12.330Z,8.20
2022-08-18T00:15:41.677Z,7.90
2022-08-18T00:18:15.357Z,11.80
2022-08-18T00:20:41.761Z,7.88
2022-08-18T00:23:08.825Z,11.10
2022-08-18T00:25:35.906Z,6.20
2022-08-18T00:28:02.452Z,8.55
2022-08-18T00:30:28.950Z,11.05
2022-08-18T00:32:57.591Z,5.35
2022-08-18T00:35:28.772Z,6.00
2022-08-18T00:37:57.737Z,5.57
2022-08-18T00:40:35.750Z,6.80
2022-08-18T00:43:06.717Z,7.00
2022-08-18T00:45:39.262Z,6.43
2022-08-18T00:48:07.447Z,5.63
2022-08-18T00:50:56.704Z,7.90
2022-08-18T00:53:33.371Z,7.50
2022-08-18T00:56:10.234Z,6.38
2022-08-18T00:58:43.065Z,10.60
2022-08-18T01:01:12.800Z,9.05
2022-08-18T01:03:42.533Z,5.38
2022-08-18T01:06:23.559Z,6.15
2022-08-18T01:08:50.076Z,9.85
2022-08-18T01:11:16.542Z,9.25
2022-08-18T01:13:43.697Z,6.88
2022-08-18T01:16:28.649Z,6.47
2022-08-18T01:19:13.338Z,8.10
2022-08-18T01:24:21.850Z,6.55
2022-08-18T01:26:51.699Z,9.77
2022-08-18T01:29:19.871Z,7.18
2022-08-18T01:31:56.403Z,5.88
2022-08-18T01:34:26.470Z,8.35
2022-08-18T01:36:54.861Z,8.55
2022-08-18T01:41:24.657Z,5.80
2022-08-18T01:42:08.561Z,6.05
2022-08-18T01:44:35.120Z,7.07
2022-08-18T01:47:01.526Z,7.05
2022-08-18T01:49:30.875Z,7.60
2022-08-18T01:51:57.293Z,7.05
2022-08-18T01:54:23.700Z,4.38
2022-08-18T01:56:50.186Z,5.30
2022-08-18T01:59:16.629Z,6.97
2022-08-18T02:01:50.549Z,5.50
2022-08-18T02:04:35.086Z,6.88
2022-08-18T02:07:04.778Z,7.07
2022-08-18T02:09:31.258Z,7.47
2022-08-18T02:11:57.636Z,8.52
2022-08-18T02:14:27.366Z,11.30
2022-08-18T02:17:01.568Z,8.57
2022-08-18T02:19:28.706Z,10.73
2022-08-18T02:21:55.139Z,6.15
2022-08-18T02:24:21.541Z,5.65
2022-08-18T02:26:47.955Z,7.65
2022-08-18T02:29:14.356Z,5.95
2022-08-18T02:31:40.822Z,7.55
2022-08-18T02:34:07.209Z,5.03
2022-08-18T02:36:33.609Z,5.35
2022-08-18T02:39:00.279Z,4.70
2022-08-18T02:41:29.630Z,7.93
2022-08-18T02:43:57.201Z,5.53
2022-08-18T02:46:23.646Z,5.32
2022-08-18T02:48:52.291Z,5.10
2022-08-18T02:51:18.984Z,6.07
2022-08-18T02:53:47.478Z,3.83
2022-08-18T02:56:32.966Z,3.20
2022-08-18T02:59:11.169Z,6.38
2022-08-18T03:01:40.210Z,3.60
2022-08-18T03:04:08.453Z,6.80
2022-08-18T03:06:37.138Z,3.47
2022-08-18T03:09:08.115Z,5.60
2022-08-18T03:11:35.582Z,5.13
2022-08-18T03:14:02.241Z,5.22
2022-08-18T03:16:31.414Z,2.80
2022-08-18T03:18:58.425Z,3.10
2022-08-18T03:21:27.164Z,4.18
2022-08-18T03:24:00.254Z,6.57
2022-08-18T03:26:29.711Z,8.07
2022-08-18T03:28:56.249Z,5.00
2022-08-18T03:31:24.981Z,2.75
2022-08-18T03:33:56.149Z,6.30
2022-08-18T03:36:28.721Z,8.23
2022-08-18T03:38:55.430Z,5.95
2022-08-18T03:41:44.134Z,4.93
2022-08-18T03:44:14.572Z,4.70
2022-08-18T03:46:42.850Z,4.68
2022-08-18T03:49:09.575Z,7.28
2022-08-18T03:51:36.882Z,7.45
2022-08-18T03:54:05.751Z,6.32
2022-08-18T03:56:35.173Z,10.45
2022-08-18T03:59:07.725Z,8.52
2022-08-18T04:01:39.240Z,11.95
2022-08-18T04:04:09.653Z,8.45
2022-08-18T04:06:42.443Z,9.23
2022-08-18T04:09:13.006Z,7.70
2022-08-18T04:11:43.068Z,11.45
2022-08-18T04:14:12.570Z,8.05
2022-08-18T04:16:40.863Z,7.22
2022-08-18T04:19:08.830Z,7.10
2022-08-18T04:21:39.366Z,8.40
2022-08-18T04:24:07.329Z,9.85
2022-08-18T04:26:36.674Z,6.10
2022-08-18T04:29:04.848Z,6.78
2022-08-18T04:31:32.116Z,7.30
2022-08-18T04:34:00.282Z,7.75
2022-08-18T04:36:28.372Z,8.60
2022-08-18T04:38:56.464Z,5.95
2022-08-18T04:41:27.589Z,6.30
2022-08-18T04:43:57.554Z,8.60
2022-08-18T04:46:24.588Z,24.40
2022-08-18T04:48:52.175Z,6.75
2022-08-18T04:52:37.600Z,5.32
2022-08-18T04:54:07.174Z,8.52
2022-08-18T04:56:37.656Z,6.35
2022-08-18T04:59:10.031Z,10.00
2022-08-18T05:01:42.328Z,9.27
2022-08-18T05:04:09.896Z,8.90
2022-08-18T05:06:36.359Z,8.18
2022-08-18T05:09:06.933Z,9.32
2022-08-18T05:11:34.576Z,7.72
2022-08-18T05:14:02.818Z,5.57
2022-08-18T05:16:32.707Z,6.72
2022-08-18T05:19:05.957Z,7.05
2022-08-18T05:21:37.230Z,8.07
2022-08-18T05:24:04.818Z,6.75
2022-08-18T05:26:32.037Z,7.47
2022-08-18T05:29:04.238Z,6.38
2022-08-18T05:31:46.056Z,7.95
2022-08-18T05:34:12.435Z,5.70
2022-08-18T05:36:51.801Z,5.68
2022-08-18T05:39:18.149Z,5.72
2022-08-18T05:41:47.031Z,6.15
2022-08-18T05:44:15.660Z,5.53
2022-08-18T05:46:54.368Z,6.35
2022-08-18T05:49:22.328Z,4.07
2022-08-18T05:51:57.605Z,3.97
2022-08-18T05:54:45.704Z,4.18
2022-08-18T05:57:21.654Z,2.95
2022-08-18T05:59:48.820Z,3.83
2022-08-18T06:02:30.262Z,3.38
2022-08-18T06:05:04.350Z,5.07
2022-08-18T06:07:42.069Z,5.30
2022-08-18T06:10:10.327Z,5.00
2022-08-18T06:12:46.699Z,7.93
2022-08-18T06:15:16.093Z,4.85
2022-08-18T06:18:02.375Z,4.85
2022-08-18T06:20:53.458Z,6.35
2022-08-18T06:23:34.235Z,5.13
2022-08-18T06:26:16.882Z,4.30
2022-08-18T06:29:15.401Z,7.22
2022-08-18T06:32:14.393Z,5.63
2022-08-18T06:34:47.559Z,6.03
2022-08-18T06:37:23.849Z,4.75
2022-08-18T06:39:52.085Z,4.32
2022-08-18T06:42:21.590Z,9.45
2022-08-18T06:44:52.859Z,5.38
2022-08-18T06:47:44.530Z,9.00
2022-08-18T06:50:23.045Z,5.47
2022-08-18T06:53:04.570Z,8.13
2022-08-18T06:55:35.838Z,5.35
2022-08-18T06:58:17.055Z,8.95
2022-08-18T07:01:07.729Z,8.43
2022-08-18T07:03:37.197Z,3.67
2022-08-18T07:06:31.237Z,7.05
2022-08-18T07:09:24.263Z,6.83
2022-08-18T07:12:10.959Z,11.13
2022-08-18T07:14:51.129Z,7.32
2022-08-18T07:17:43.142Z,5.95
2022-08-18T07:20:24.268Z,8.52
2022-08-18T07:22:59.907Z,8.40
2022-08-18T07:25:39.764Z,6.53
2022-08-18T07:28:07.122Z,8.05
2022-08-18T07:30:36.629Z,8.35
2022-08-18T07:33:32.561Z,4.40
2022-08-18T07:36:05.606Z,6.90
2022-08-18T07:38:43.778Z,6.10
2022-08-18T07:41:30.463Z,8.80
2022-08-18T07:44:34.545Z,12.70
2022-08-18T07:47:20.066Z,11.05
2022-08-18T07:50:16.592Z,10.13
2022-08-18T07:52:47.416Z,7.50
2022-08-18T07:55:26.949Z,5.25
2022-08-18T07:57:56.093Z,5.57
2022-08-18T08:03:49.973Z,5.93
2022-08-18T08:06:39.325Z,3.38
2022-08-18T08:09:24.310Z,5.30
2022-08-18T08:11:58.315Z,2.03
2022-08-18T08:14:43.103Z,1.73
2022-08-18T08:17:34.083Z,4.72
2022-08-18T08:20:22.688Z,4.57
2022-08-18T08:23:17.337Z,5.55
2022-08-18T08:26:00.644Z,2.97
2022-08-18T08:29:02.350Z,4.90
2022-08-18T08:31:48.062Z,3.50
2022-08-18T08:34:27.743Z,4.03
2022-08-18T08:37:02.542Z,5.05
2022-08-18T08:40:02.606Z,4.38
2022-08-18T08:42:54.912Z,3.83
2022-08-18T08:45:26.683Z,6.18
2022-08-18T08:48:09.167Z,2.58
2022-08-18T08:50:48.870Z,3.13
2022-08-18T08:53:27.384Z,3.47
2022-08-18T08:56:02.674Z,4.97
2022-08-18T08:58:46.128Z,3.72
2022-08-18T09:01:43.645Z,3.30
2022-08-18T09:04:15.821Z,6.25
2022-08-18T09:06:53.429Z,4.13
2022-08-18T09:09:28.902Z,4.72
2022-08-18T09:12:21.571Z,3.05
2022-08-18T09:15:18.469Z,6.07
2022-08-18T09:18:10.546Z,5.00
2022-08-18T09:20:58.203Z,4.90
2022-08-18T09:23:28.194Z,4.55
2022-08-18T09:26:00.239Z,5.15
2022-08-18T09:28:29.401Z,3.25
2022-08-18T09:31:02.238Z,1.95
2022-08-18T09:33:29.239Z,3.65
2022-08-18T09:36:42.774Z,2.10
2022-08-18T09:39:54.404Z,4.13
2022-08-18T09:42:50.027Z,3.80
2022-08-18T09:45:33.788Z,3.28
2022-08-18T09:48:08.837Z,5.20
2022-08-18T09:50:52.236Z,2.97
2022-08-18T09:53:53.862Z,2.42
2022-08-18T09:56:54.372Z,5.65
2022-08-18T09:59:34.407Z,3.60
2022-08-18T10:02:22.649Z,6.18
2022-08-18T10:04:51.232Z,3.45
2022-08-18T10:07:35.372Z,5.60
2022-08-18T10:10:58.660Z,1.85
2022-08-18T10:13:38.746Z,2.25
2022-08-18T10:16:31.921Z,2.88
2022-08-18T10:19:33.659Z,2.17
2022-08-18T10:22:04.746Z,3.10
2022-08-18T10:24:46.366Z,3.72
2022-08-18T10:27:53.373Z,4.65
2022-08-18T10:30:30.492Z,6.95
2022-08-18T10:33:17.299Z,3.42
2022-08-18T10:35:58.699Z,3.22
2022-08-18T10:38:39.185Z,4.28
2022-08-18T10:41:15.646Z,2.92
2022-08-18T10:43:55.782Z,3.97
2022-08-18T10:46:42.529Z,2.58
2022-08-18T10:49:13.322Z,2.70
2022-08-18T10:51:59.300Z,1.63
2022-08-18T10:54:50.948Z,4.85
2022-08-18T10:57:54.678Z,3.20
2022-08-18T11:00:27.688Z,2.95
2022-08-18T11:03:50.747Z,3.03
2022-08-18T11:06:17.851Z,3.08
2022-08-18T11:08:54.879Z,2.85
2022-08-18T11:11:34.668Z,2.42
2022-08-18T11:14:41.868Z,2.33
2022-08-18T11:20:14.651Z,3.75
2022-08-18T11:22:53.985Z,2.30
2022-08-18T11:25:48.349Z,2.40
2022-08-18T11:28:18.668Z,2.03
2022-08-18T11:30:50.699Z,2.63
2022-08-18T11:33:23.190Z,1.48
2022-08-18T11:35:57.967Z,3.67
2022-08-18T11:38:26.549Z,2.95
2022-08-18T11:41:14.226Z,3.00
2022-08-18T11:43:47.559Z,2.30
2022-08-18T11:46:31.608Z,2.63
2022-08-18T11:51:30.227Z,3.25
2022-08-18T11:54:04.887Z,2.10
2022-08-18T12:02:25.314Z,1.35
2022-08-18T12:04:56.843Z,3.67
2022-08-18T12:07:30.297Z,2.70
2022-08-18T12:10:20.006Z,2.20
2022-08-18T12:12:54.302Z,5.80
2022-08-18T12:15:43.559Z,2.22
2022-08-18T12:18:11.236Z,2.17
2022-08-18T12:20:52.944Z,3.75
2022-08-18T12:23:19.323Z,2.47
2022-08-18T12:25:47.900Z,2.28
2022-08-18T12:28:18.675Z,3.38
2022-08-18T12:30:45.065Z,1.77
2022-08-18T12:33:12.858Z,2.20
2022-08-18T12:35:41.901Z,1.50
2022-08-18T12:38:13.898Z,2.13
2022-08-18T12:40:42.940Z,1.42
2022-08-18T12:43:09.416Z,2.25
2022-08-18T12:45:38.174Z,2.55
2022-08-18T12:48:06.803Z,2.33
2022-08-18T12:50:41.091Z,2.28
2022-08-18T12:53:16.844Z,2.25
2022-08-18T12:58:31.043Z,2.55
2022-08-18T13:03:52.666Z,2.63
2022-08-18T13:06:40.833Z,3.22
2022-08-18T13:09:16.628Z,3.88
2022-08-18T13:12:00.079Z,2.90
2022-08-18T13:14:26.756Z,2.10
2022-08-18T13:16:55.145Z,2.90
2022-08-18T13:19:21.742Z,3.13
2022-08-18T13:21:48.301Z,3.40
2022-08-18T13:24:16.378Z,2.28
2022-08-18T13:26:47.808Z,1.63
2022-08-18T13:29:17.550Z,2.83
2022-08-18T13:31:55.505Z,2.42
2022-08-18T13:34:27.428Z,2.55
2022-08-18T13:36:56.284Z,2.63
2022-08-18T13:39:24.833Z,2.20
2022-08-18T13:42:00.979Z,1.30
2022-08-18T13:44:49.868Z,2.45
2022-08-18T13:47:19.786Z,2.87
2022-08-18T13:49:57.936Z,1.95
2022-08-18T13:52:34.870Z,1.92
2022-08-18T13:55:08.484Z,2.50
2022-08-18T13:57:37.473Z,1.58
2022-08-18T14:00:07.174Z,1.67
2022-08-18T14:02:44.933Z,6.22
2022-08-18T14:05:11.523Z,3.03
2022-08-18T14:07:37.950Z,1.95
2022-08-18T14:10:10.733Z,3.95
2022-08-18T14:12:41.206Z,2.58
2022-08-18T14:15:10.955Z,3.78
2022-08-18T14:17:38.719Z,2.30
2022-08-18T14:20:27.620Z,2.13
2022-08-18T14:23:35.179Z,1.50
2022-08-18T14:26:22.797Z,3.47
2022-08-18T14:28:53.282Z,2.25
2022-08-18T14:31:20.778Z,3.05
2022-08-18T14:33:53.565Z,3.20
2022-08-18T14:36:29.817Z,1.58
2022-08-18T14:38:57.566Z,2.67
2022-08-18T14:41:25.587Z,3.75
2022-08-18T14:44:12.043Z,1.77
2022-08-18T14:46:40.878Z,2.17
2022-08-18T14:49:07.959Z,2.70
2022-08-18T14:51:34.332Z,1.83
2022-08-18T14:54:01.597Z,1.52
2022-08-18T14:56:29.437Z,1.25
2022-08-18T14:58:56.250Z,1.45
2022-08-18T15:01:24.530Z,2.13
2022-08-18T15:03:54.332Z,2.70
2022-08-18T15:06:23.000Z,2.05
2022-08-18T15:08:54.115Z,5.03
2022-08-18T15:11:23.276Z,2.03
2022-08-18T15:13:51.564Z,2.45
2022-08-18T15:16:26.971Z,1.83
2022-08-18T15:18:58.136Z,2.33
2022-08-18T15:21:43.137Z,1.58
2022-08-18T15:24:28.452Z,2.85
2022-08-18T15:26:58.295Z,4.00
2022-08-18T15:29:33.105Z,2.00
2022-08-18T15:32:02.098Z,1.27
2022-08-18T15:37:14.032Z,1.55
2022-08-18T15:39:40.973Z,3.15
2022-08-18T15:42:10.702Z,2.05
2022-08-18T15:44:38.108Z,1.55
2022-08-18T15:47:05.235Z,1.85
2022-08-18T15:49:32.457Z,1.23
2022-08-18T15:52:00.314Z,1.42
2022-08-18T15:54:26.709Z,1.90
2022-08-18T15:56:58.304Z,1.63
2022-08-18T15:59:33.010Z,1.73
2022-08-18T16:02:02.063Z,2.60
2022-08-18T16:04:28.514Z,1.38
2022-08-18T16:06:55.890Z,1.45
2022-08-18T16:09:22.327Z,1.23
2022-08-18T16:11:48.821Z,2.72
2022-08-18T16:14:15.414Z,1.33
2022-08-18T16:16:41.882Z,1.38
2022-08-18T16:19:08.295Z,1.20
2022-08-18T16:21:39.529Z,1.40
2022-08-18T16:24:07.759Z,1.70
2022-08-18T16:26:34.213Z,3.03
2022-08-18T16:29:01.980Z,1.92
2022-08-18T16:31:29.357Z,0.98
2022-08-18T16:33:57.723Z,1.25
2022-08-18T16:36:25.617Z,1.70
2022-08-18T16:38:53.565Z,2.17
2022-08-18T16:41:20.643Z,2.95
2022-08-18T16:43:47.889Z,2.47
2022-08-18T16:46:23.006Z,2.20
2022-08-18T16:48:49.557Z,3.67
2022-08-18T16:51:19.209Z,3.25
2022-08-18T16:53:47.185Z,1.50
2022-08-18T16:56:16.484Z,1.42
2022-08-18T16:59:01.781Z,2.13
2022-08-18T17:01:49.033Z,2.10
2022-08-18T17:04:20.582Z,2.13
2022-08-18T17:06:47.839Z,1.55
2022-08-18T17:09:15.214Z,1.85
2022-08-18T17:11:51.340Z,1.67
2022-08-18T17:14:23.824Z,2.33
2022-08-18T17:16:55.004Z,2.13
2022-08-18T17:19:24.053Z,4.05
2022-08-18T17:21:50.459Z,2.33
2022-08-18T17:24:19.813Z,3.20
2022-08-18T17:27:37.865Z,3.80
2022-08-18T17:30:17.334Z,2.30
2022-08-18T17:33:04.602Z,1.85
2022-08-18T17:35:39.116Z,1.98
2022-08-18T17:38:11.373Z,2.22
2022-08-18T17:40:48.261Z,2.45
2022-08-18T17:43:22.108Z,2.67
2022-08-18T17:46:01.916Z,2.00
2022-08-18T17:48:37.490Z,2.05
2022-08-18T17:51:28.826Z,2.25
2022-08-18T17:53:59.162Z,2.88
2022-08-18T17:56:35.162Z,1.80
2022-08-18T17:59:42.912Z,2.50
2022-08-18T18:02:09.241Z,2.20
2022-08-18T18:04:55.933Z,1.98
2022-08-18T18:07:23.903Z,1.42
2022-08-18T18:09:56.810Z,1.77
2022-08-18T18:12:26.365Z,1.95
2022-08-18T18:14:52.760Z,1.88
2022-08-18T18:17:25.107Z,1.13
2022-08-18T18:20:18.062Z,1.25
2022-08-18T18:22:45.780Z,3.15
2022-08-18T18:25:13.564Z,1.52
2022-08-18T18:27:43.763Z,3.67
2022-08-18T18:30:27.537Z,1.33
2022-08-18T18:33:02.659Z,1.65
2022-08-18T18:35:53.105Z,3.20
2022-08-18T18:38:33.312Z,3.13
2022-08-18T18:41:09.996Z,3.15
2022-08-18T18:43:46.740Z,2.33
2022-08-18T18:46:22.809Z,1.73
2022-08-18T18:48:52.633Z,1.80
2022-08-18T18:51:36.592Z,1.80
2022-08-18T18:54:25.976Z,1.63
2022-08-18T18:56:56.492Z,1.80
2022-08-18T18:59:51.033Z,2.88
2022-08-18T19:02:36.252Z,1.70
2022-08-18T19:05:29.327Z,3.85
2022-08-18T19:08:04.654Z,2.25
2022-08-18T19:10:55.902Z,2.47
2022-08-18T19:13:39.311Z,3.35
2022-08-18T19:16:23.816Z,1.85
2022-08-18T19:19:37.371Z,3.47
2022-08-18T19:22:05.551Z,0.98
2022-08-18T19:24:39.124Z,2.50
2022-08-18T19:27:11.227Z,2.08
2022-08-18T19:29:43.339Z,3.88
2022-08-18T19:32:17.745Z,2.75
2022-08-18T19:34:51.430Z,2.67
2022-08-18T19:37:35.872Z,4.30
2022-08-18T19:40:14.853Z,1.90
2022-08-18T19:43:03.417Z,2.42
2022-08-18T19:45:53.080Z,2.55
2022-08-18T19:48:38.098Z,1.90
2022-08-18T19:51:13.536Z,1.52
2022-08-18T19:53:58.689Z,4.68
2022-08-18T19:56:46.991Z,1.73
2022-08-18T19:59:49.185Z,1.42
2022-08-18T20:02:29.348Z,1.85
2022-08-18T20:05:17.294Z,3.30
2022-08-18T20:08:04.446Z,2.35
2022-08-18T20:10:50.307Z,1.63
2022-08-18T20:13:32.883Z,2.85
2022-08-18T20:16:02.063Z,2.63
2022-08-18T20:18:35.777Z,3.20
2022-08-18T20:21:14.125Z,1.65
2022-08-18T20:23:55.920Z,1.77
2022-08-18T20:26:34.930Z,2.67
2022-08-18T20:29:02.225Z,2.42
2022-08-18T20:31:50.372Z,2.13
2022-08-18T20:34:29.223Z,2.75
2022-08-18T20:36:58.959Z,2.35
2022-08-18T20:39:44.101Z,2.47
2022-08-18T20:42:22.656Z,2.22
2022-08-18T20:44:51.605Z,2.22
2022-08-18T20:47:43.017Z,3.55
2022-08-18T20:50:46.746Z,4.32
2022-08-18T20:53:42.749Z,2.28
2022-08-18T20:56:43.132Z,1.80
2022-08-18T20:59:16.635Z,2.45
2022-08-18T21:01:43.083Z,3.65
2022-08-18T21:04:09.455Z,2.13
2022-08-18T21:06:41.993Z,2.00
2022-08-18T21:09:08.808Z,1.73
2022-08-18T21:11:43.662Z,1.40
2022-08-18T21:14:12.185Z,2.75
2022-08-18T21:16:45.381Z,2.53
2022-08-18T21:19:27.795Z,2.60
2022-08-18T21:21:58.648Z,3.78
2022-08-18T21:24:32.721Z,2.22
2022-08-18T21:27:05.593Z,2.38
2022-08-18T21:29:47.290Z,2.70
2022-08-18T21:32:29.106Z,1.90
2022-08-18T21:34:55.607Z,3.50
2022-08-18T21:37:22.057Z,2.03
2022-08-18T21:39:54.849Z,2.63
2022-08-18T21:42:42.946Z,2.90
2022-08-18T21:45:22.510Z,1.77
2022-08-18T21:48:04.281Z,3.83
2022-08-18T21:50:33.600Z,4.28
2022-08-18T21:53:05.233Z,3.38
2022-08-18T21:55:37.196Z,5.32
2022-08-18T21:58:06.463Z,3.42
2022-08-18T22:00:37.245Z,6.65
2022-08-18T22:03:21.289Z,3.70
2022-08-18T22:06:13.955Z,4.10
2022-08-18T22:08:56.209Z,4.70
2022-08-18T22:12:00.690Z,3.70
2022-08-18T22:14:53.777Z,3.85
2022-08-18T22:17:33.568Z,3.60
2022-08-18T22:20:38.351Z,2.42
2022-08-18T22:23:35.276Z,2.95
2022-08-18T22:26:12.369Z,3.22
2022-08-18T22:28:49.668Z,3.60
2022-08-18T22:31:20.874Z,5.38
2022-08-18T22:33:48.314Z,10.57
2022-08-18T22:36:19.161Z,6.25
2022-08-18T22:38:46.523Z,6.57
2022-08-18T22:41:14.020Z,5.63
2022-08-18T22:43:40.427Z,9.77
2022-08-18T22:46:06.894Z,7.18
2022-08-18T22:48:33.318Z,4.93
2022-08-18T22:50:59.798Z,8.00
2022-08-18T22:53:26.249Z,6.03
2022-08-18T22:55:53.269Z,5.15
2022-08-18T22:58:24.069Z,6.13
2022-08-18T23:01:05.389Z,5.75
2022-08-18T23:03:34.415Z,5.32
2022-08-18T23:06:09.505Z,4.50
2022-08-18T23:08:54.624Z,5.40
2022-08-18T23:11:23.747Z,5.32
2022-08-18T23:13:50.716Z,6.38
2022-08-18T23:16:31.813Z,5.93
2022-08-18T23:19:01.668Z,4.38
2022-08-18T23:21:34.452Z,8.38
2022-08-18T23:24:04.091Z,3.83
2022-08-18T23:26:30.650Z,4.80
2022-08-18T23:28:57.337Z,5.35
2022-08-18T23:31:23.747Z,6.05
2022-08-18T23:33:50.152Z,5.13
2022-08-18T23:36:17.740Z,5.13
2022-08-18T23:38:44.233Z,4.32
2022-08-18T23:41:12.753Z,6.03
2022-08-18T23:43:39.283Z,5.97
2022-08-18T23:46:15.348Z,6.07
2022-08-18T23:48:50.171Z,4.75
2022-08-18T23:51:29.292Z,4.88
2022-08-18T23:54:00.701Z,6.18
2022-08-18T23:56:29.380Z,5.32
2022-08-18T23:58:57.385Z,4.93
